< < Back
Terminal Aerodrome Forecast


Current Version              Previous Versions:   1  2  3  4  5  6  7  8  9  

Terminal Aerodrome Forecast

009
FTUS42 KFFC 311454 AAA
TAFCSG
TAF AMD
KCSG 311454Z 3115/0112 03004KT P6SM FEW025 BKN040
     FM311800 VRB05KT P6SM SCT040
     FM010000 VRB03KT P6SM SCT045 SCT250
     FM010900 00000KT 3SM BR SCT002 SCT250=

Latest METAR

714
SAUS70 KWBC 010200 RRG
MTRCSG
METAR KCSG 010151Z AUTO 08003KT 10SM CLR 26/21 A3008 RMK AO2 SLP179
T02610206 $


USA.gov is the U.S. government's official web portal to all federal, state and local government web resources and services.